createdAt,value
2022-10-05T00:01:23.828Z,100947.09
2022-10-05T00:04:03.438Z,100929.22
2022-10-05T00:06:35.311Z,100959.94
2022-10-05T00:09:23.901Z,100947.09
2022-10-05T00:11:55.736Z,100969.94
2022-10-05T00:14:32.253Z,100969.94
2022-10-05T00:17:07.066Z,100962.88
2022-10-05T00:19:40.689Z,100983.25
2022-10-05T00:22:18.122Z,100934.81
2022-10-05T00:24:53.157Z,100899.25
2022-10-05T00:27:27.879Z,100993.66
2022-10-05T00:30:01.526Z,100990.72
2022-10-05T00:32:33.240Z,100992.41
2022-10-05T00:35:05.443Z,100993.84
2022-10-05T00:37:37.558Z,101001.94
2022-10-05T00:40:32.050Z,101001.53
2022-10-05T00:43:26.724Z,100924.63
2022-10-05T00:46:09.871Z,100967.44
2022-10-05T00:48:47.327Z,101005.28
2022-10-05T00:51:32.725Z,101006.13
2022-10-05T00:54:15.862Z,101010.47
2022-10-05T00:57:11.373Z,101015.28
2022-10-05T00:59:43.162Z,101028.59
2022-10-05T01:02:25.612Z,101027.13
2022-10-05T01:05:34.187Z,101036.28
2022-10-05T01:08:32.876Z,101040.63
2022-10-05T01:11:30.436Z,101001.97
2022-10-05T01:14:02.438Z,101039.78
2022-10-05T01:17:03.089Z,101053.94
2022-10-05T01:20:10.882Z,100985.72
2022-10-05T01:23:07.012Z,101058.72
2022-10-05T01:26:06.070Z,101056.41
2022-10-05T01:28:54.704Z,101062.47
2022-10-05T01:31:34.541Z,100964.56
2022-10-05T01:34:25.738Z,101064.53
2022-10-05T01:37:24.309Z,101066.22
2022-10-05T01:40:14.572Z,101027.75
2022-10-05T01:42:50.909Z,101073.25
2022-10-05T01:45:23.983Z,101063.06
2022-10-05T01:48:24.201Z,100998.81
2022-10-05T01:51:04.714Z,101055.81
2022-10-05T01:53:37.903Z,101069.50
2022-10-05T01:56:21.380Z,100990.72
2022-10-05T01:59:09.143Z,100991.97
2022-10-05T02:01:57.060Z,101076.75
2022-10-05T02:05:00.951Z,101083.63
2022-10-05T02:07:33.965Z,101004.81
2022-10-05T02:10:11.073Z,100966.16
2022-10-05T02:12:42.369Z,101065.50
2022-10-05T02:15:22.218Z,100982.34
2022-10-05T02:18:04.532Z,100991.47
2022-10-05T02:20:39.248Z,101061.31
2022-10-05T02:23:24.560Z,101032.19
2022-10-05T02:25:56.626Z,101050.66
2022-10-05T02:28:47.749Z,101045.78
2022-10-05T02:32:00.371Z,100953.66
2022-10-05T02:34:37.531Z,101034.41
2022-10-05T02:37:27.309Z,101035.44
2022-10-05T02:40:25.442Z,100893.38
2022-10-05T02:43:22.822Z,100955.47
2022-10-05T02:46:03.111Z,101031.69
2022-10-05T02:48:58.082Z,101031.88
2022-10-05T02:51:37.361Z,101027.03
2022-10-05T02:54:39.924Z,101029.94
2022-10-05T02:57:12.747Z,101031.31
2022-10-05T03:00:14.389Z,101009.16
2022-10-05T03:02:51.187Z,101019.72
2022-10-05T03:05:35.568Z,100938.94
2022-10-05T03:08:15.717Z,100939.28
2022-10-05T03:10:56.742Z,101017.81
2022-10-05T03:13:46.284Z,101021.16
2022-10-05T03:16:39.969Z,101021.56
2022-10-05T03:19:19.937Z,101018.16
2022-10-05T03:22:02.304Z,101018.38
2022-10-05T03:24:53.069Z,100941.75
2022-10-05T03:27:57.195Z,101015.44
2022-10-05T03:30:35.931Z,101014.34
2022-10-05T03:33:34.676Z,100915.28
2022-10-05T03:36:15.185Z,101003.69
2022-10-05T03:39:14.191Z,100930.63
2022-10-05T03:42:26.389Z,100990.41
2022-10-05T03:45:27.145Z,100996.81
2022-10-05T03:48:12.862Z,100993.94
2022-10-05T03:51:02.558Z,100977.34
2022-10-05T03:53:58.205Z,100902.53
2022-10-05T03:56:32.113Z,100972.34
2022-10-05T03:59:05.397Z,100970.88
2022-10-05T04:01:44.866Z,100913.72
2022-10-05T04:04:24.497Z,100881.50
2022-10-05T04:06:58.298Z,100897.84
2022-10-05T04:09:37.704Z,100862.78
2022-10-05T04:12:14.244Z,100928.28
2022-10-05T04:15:02.508Z,100927.03
2022-10-05T04:17:38.319Z,100938.22
2022-10-05T04:20:27.077Z,100919.84
2022-10-05T04:22:57.646Z,100915.25
2022-10-05T04:25:43.535Z,100905.53
2022-10-05T04:28:42.770Z,100901.44
2022-10-05T04:31:23.931Z,100817.00
2022-10-05T04:34:06.725Z,100870.66
2022-10-05T04:36:47.658Z,100886.31
2022-10-05T04:39:18.489Z,100893.78
2022-10-05T04:42:13.215Z,100898.16
2022-10-05T04:44:58.947Z,100885.00
2022-10-05T04:47:59.843Z,100803.34
2022-10-05T04:50:51.420Z,100878.28
2022-10-05T04:53:43.357Z,100869.69
2022-10-05T04:56:21.300Z,100866.72
2022-10-05T04:59:10.386Z,100867.44
2022-10-05T05:01:50.856Z,100885.25
2022-10-05T05:04:42.688Z,100870.28
2022-10-05T05:07:25.196Z,100868.97
2022-10-05T05:10:07.075Z,100863.66
2022-10-05T05:12:52.397Z,100879.34
2022-10-05T05:15:34.510Z,100850.13
2022-10-05T05:18:40.274Z,100827.34
2022-10-05T05:21:43.059Z,100837.66
2022-10-05T05:24:41.378Z,100837.13
2022-10-05T05:27:44.003Z,100831.41
2022-10-05T05:30:16.625Z,100825.81
2022-10-05T05:33:05.299Z,100819.91
2022-10-05T05:35:56.396Z,100804.97
2022-10-05T05:38:37.286Z,100788.75
2022-10-05T05:41:12.750Z,100794.47
2022-10-05T05:44:04.566Z,100785.00
2022-10-05T05:47:05.787Z,100690.91
2022-10-05T05:49:46.925Z,100781.13
2022-10-05T05:52:35.061Z,100773.69
2022-10-05T05:55:21.255Z,100764.34
2022-10-05T05:58:21.787Z,100754.56
2022-10-05T06:01:13.190Z,100750.78
2022-10-05T06:04:17.802Z,100674.81
2022-10-05T06:06:55.205Z,100665.84
2022-10-05T06:09:40.703Z,100721.19
2022-10-05T06:12:35.968Z,100716.44
2022-10-05T06:15:30.952Z,100718.69
2022-10-05T06:18:10.383Z,100713.16
2022-10-05T06:20:50.569Z,100695.97
2022-10-05T06:23:30.075Z,100690.16
2022-10-05T06:26:10.549Z,100685.94
2022-10-05T06:28:44.446Z,100683.81
2022-10-05T06:31:24.293Z,100678.38
2022-10-05T06:34:29.063Z,100609.59
2022-10-05T06:37:08.443Z,100657.59
2022-10-05T06:40:00.880Z,100660.09
2022-10-05T06:42:56.605Z,100645.94
2022-10-05T06:46:04.447Z,100610.34
2022-10-05T06:49:15.748Z,100640.50
2022-10-05T06:52:15.059Z,100637.31
2022-10-05T06:54:55.418Z,100630.25
2022-10-05T06:57:56.953Z,100621.50
2022-10-05T07:00:51.160Z,100551.16
2022-10-05T07:03:32.535Z,100624.25
2022-10-05T07:06:20.866Z,100617.03
2022-10-05T07:09:08.784Z,100609.47
2022-10-05T07:11:59.609Z,100606.28
2022-10-05T07:15:14.557Z,100597.91
2022-10-05T07:18:01.766Z,100603.13
2022-10-05T07:20:49.006Z,100606.41
2022-10-05T07:24:06.687Z,100602.75
2022-10-05T07:27:03.014Z,100592.97
2022-10-05T07:29:44.086Z,100580.00
2022-10-05T07:32:17.411Z,100575.38
2022-10-05T07:34:55.686Z,100506.38
2022-10-05T07:37:58.270Z,100571.69
2022-10-05T07:40:57.078Z,100548.59
2022-10-05T07:44:08.879Z,100568.16
2022-10-05T07:47:02.163Z,100579.50
2022-10-05T07:49:57.141Z,100447.16
2022-10-05T07:52:50.139Z,100589.28
2022-10-05T07:55:51.543Z,100609.25
2022-10-05T07:58:26.546Z,100614.94
2022-10-05T08:01:20.793Z,100623.44
2022-10-05T08:04:13.367Z,100623.66
2022-10-05T08:07:07.560Z,100631.81
2022-10-05T08:09:56.901Z,100621.50
2022-10-05T08:13:04.575Z,100542.47
2022-10-05T08:15:49.445Z,100563.94
2022-10-05T08:18:43.203Z,100623.19
2022-10-05T08:21:17.237Z,100621.03
2022-10-05T08:24:01.422Z,100535.16
2022-10-05T08:26:40.506Z,100610.16
2022-10-05T08:29:48.343Z,100595.91
2022-10-05T08:32:33.549Z,100594.50
2022-10-05T08:35:23.342Z,100601.72
2022-10-05T08:37:55.413Z,100591.16
2022-10-05T08:40:38.122Z,100594.84
2022-10-05T08:43:35.268Z,100596.97
2022-10-05T08:46:14.470Z,100600.16
2022-10-05T08:49:14.019Z,100534.78
2022-10-05T08:52:16.728Z,100591.53
2022-10-05T08:55:05.827Z,100599.78
2022-10-05T08:57:50.202Z,100517.22
2022-10-05T09:00:26.311Z,100525.59
2022-10-05T09:03:20.722Z,100594.50
2022-10-05T09:06:21.997Z,100590.09
2022-10-05T09:09:14.153Z,100590.25
2022-10-05T09:12:08.141Z,100596.28
2022-10-05T09:15:20.469Z,100582.94
2022-10-05T09:18:04.948Z,100599.59
2022-10-05T09:20:55.044Z,100596.25
2022-10-05T09:23:39.358Z,100583.31
2022-10-05T09:26:31.227Z,100592.97
2022-10-05T09:29:34.859Z,100510.88
2022-10-05T09:32:20.554Z,100596.28
2022-10-05T09:35:17.785Z,100612.56
2022-10-05T09:37:59.683Z,100611.63
2022-10-05T09:40:30.098Z,100628.97
2022-10-05T09:43:36.894Z,100636.03
2022-10-05T09:46:22.238Z,100600.66
2022-10-05T09:49:17.848Z,100675.69
2022-10-05T09:52:00.939Z,100685.19
2022-10-05T09:54:52.360Z,100707.72
2022-10-05T09:57:58.922Z,100709.56
2022-10-05T10:00:59.476Z,100709.84
2022-10-05T10:04:16.657Z,100717.13
2022-10-05T10:07:14.587Z,100700.25
2022-10-05T10:10:22.172Z,100709.22
2022-10-05T10:13:13.829Z,100702.38
2022-10-05T10:15:47.001Z,100707.78
2022-10-05T10:18:38.835Z,100721.25
2022-10-05T10:21:27.385Z,100713.28
2022-10-05T10:24:28.324Z,100731.06
2022-10-05T10:27:34.281Z,100732.09
2022-10-05T10:30:20.130Z,100673.03
2022-10-05T10:33:23.838Z,100774.47
2022-10-05T10:36:06.078Z,100775.19
2022-10-05T10:38:43.455Z,100778.16
2022-10-05T10:41:34.652Z,100760.31
2022-10-05T10:44:34.320Z,100719.97
2022-10-05T10:47:25.333Z,100764.09
2022-10-05T10:50:14.095Z,100780.38
2022-10-05T10:53:03.912Z,100776.16
2022-10-05T10:55:59.401Z,100778.44
2022-10-05T10:59:00.032Z,100783.00
2022-10-05T11:01:39.343Z,100782.47
2022-10-05T11:04:27.860Z,100782.78
2022-10-05T11:07:08.465Z,100793.84
2022-10-05T11:10:03.606Z,100795.00
2022-10-05T11:12:52.585Z,100801.91
2022-10-05T11:15:44.637Z,100807.88
2022-10-05T11:18:21.116Z,100822.31
2022-10-05T11:21:02.072Z,100803.69
2022-10-05T11:23:48.241Z,100836.00
2022-10-05T11:26:37.351Z,100837.41
2022-10-05T11:29:42.801Z,100844.94
2022-10-05T11:32:37.400Z,100840.28
2022-10-05T11:35:41.091Z,100832.00
2022-10-05T11:38:17.612Z,100853.25
2022-10-05T11:41:11.941Z,100859.28
2022-10-05T11:44:06.153Z,100862.81
2022-10-05T11:46:56.740Z,100838.06
2022-10-05T11:49:43.869Z,100847.97
2022-10-05T11:52:34.426Z,100876.09
2022-10-05T11:55:31.648Z,100863.91
2022-10-05T11:58:24.278Z,100794.31
2022-10-05T12:01:00.714Z,100895.38
2022-10-05T12:03:45.847Z,100901.63
2022-10-05T12:06:24.533Z,100900.28
2022-10-05T12:08:57.713Z,100900.44
2022-10-05T12:11:39.483Z,100901.47
2022-10-05T12:14:40.413Z,100907.47
2022-10-05T12:17:40.150Z,100906.75
2022-10-05T12:20:20.227Z,100900.16
2022-10-05T12:23:41.744Z,100912.81
2022-10-05T12:26:23.553Z,100908.31
2022-10-05T12:29:33.170Z,100849.88
2022-10-05T12:32:26.513Z,100914.78
2022-10-05T12:35:36.205Z,100921.28
2022-10-05T12:38:13.437Z,100784.78
2022-10-05T12:40:58.975Z,100939.63
2022-10-05T12:44:20.072Z,100939.91
2022-10-05T12:47:16.130Z,100855.41
2022-10-05T12:50:21.418Z,100928.94
2022-10-05T12:53:24.952Z,100925.22
2022-10-05T12:56:11.248Z,100928.56
2022-10-05T12:58:59.520Z,100930.25
2022-10-05T13:01:55.204Z,100935.66
2022-10-05T13:04:41.171Z,100939.63
2022-10-05T13:07:26.674Z,100950.44
2022-10-05T13:10:05.270Z,100952.53
2022-10-05T13:12:48.932Z,100971.47
2022-10-05T13:15:28.745Z,100969.59
2022-10-05T13:18:34.784Z,100970.03
2022-10-05T13:21:14.039Z,100981.47
2022-10-05T13:24:11.467Z,100973.41
2022-10-05T13:26:49.658Z,100903.84
2022-10-05T13:36:20.775Z,100979.91
2022-10-05T13:38:53.980Z,100995.63
2022-10-05T13:41:30.162Z,101023.97
2022-10-05T13:44:28.899Z,100942.94
2022-10-05T13:47:19.629Z,100948.34
2022-10-05T13:50:05.235Z,101005.69
2022-10-05T13:53:09.506Z,100876.84
2022-10-05T13:55:45.295Z,101011.91
2022-10-05T13:58:40.970Z,101033.56
2022-10-05T14:01:35.762Z,101036.28
2022-10-05T14:04:21.546Z,101045.00
2022-10-05T14:06:53.896Z,101044.81
2022-10-05T14:09:25.190Z,101051.25
2022-10-05T14:12:04.708Z,101059.78
2022-10-05T14:14:55.345Z,100977.84
2022-10-05T14:17:39.438Z,101059.59
2022-10-05T14:20:32.395Z,100962.88
2022-10-05T14:23:28.508Z,101057.31
2022-10-05T14:26:04.183Z,101067.69
2022-10-05T14:28:36.336Z,101067.09
2022-10-05T14:31:28.318Z,101060.19
2022-10-05T14:34:01.015Z,101066.88
2022-10-05T14:36:44.942Z,101060.84
2022-10-05T14:39:15.786Z,101069.38
2022-10-05T14:41:52.039Z,100966.59
2022-10-05T14:47:23.672Z,100999.03
2022-10-05T14:50:16.975Z,100967.03
2022-10-05T14:53:11.219Z,101054.78
2022-10-05T14:56:18.301Z,101058.53
2022-10-05T14:59:08.313Z,100972.44
2022-10-05T15:01:46.862Z,101066.22
2022-10-05T15:05:01.195Z,101057.91
2022-10-05T15:07:45.008Z,101062.25
2022-10-05T15:10:30.510Z,101069.75
2022-10-05T15:13:11.737Z,101002.31
2022-10-05T15:15:44.975Z,101075.97
2022-10-05T15:19:05.996Z,101070.97
2022-10-05T15:21:36.390Z,101066.38
2022-10-05T15:24:27.646Z,101069.31
2022-10-05T15:27:05.611Z,101063.69
2022-10-05T15:29:52.388Z,101067.22
2022-10-05T15:32:23.230Z,101068.50
2022-10-05T15:34:53.889Z,101073.91
2022-10-05T15:37:27.024Z,101077.00
2022-10-05T15:40:19.019Z,100995.63
2022-10-05T15:42:54.199Z,101070.91
2022-10-05T15:45:42.944Z,101083.63
2022-10-05T15:48:45.183Z,101059.31
2022-10-05T15:51:24.591Z,101075.50
2022-10-05T15:54:17.563Z,101062.00
2022-10-05T15:57:01.409Z,101042.28
2022-10-05T15:59:55.191Z,101045.41
2022-10-05T16:02:33.339Z,100961.00
2022-10-05T16:05:46.427Z,101030.03
2022-10-05T16:08:55.117Z,101022.53
2022-10-05T16:11:28.248Z,100997.38
2022-10-05T16:14:25.537Z,100875.97
2022-10-05T16:17:10.622Z,101020.91
2022-10-05T16:20:15.629Z,100952.06
2022-10-05T16:23:06.553Z,100951.25
2022-10-05T16:25:55.544Z,101022.75
2022-10-05T16:29:00.989Z,101019.63
2022-10-05T16:31:50.055Z,101018.63
2022-10-05T16:34:25.731Z,101013.84
2022-10-05T16:37:04.623Z,100981.16
2022-10-05T16:39:40.428Z,101014.88
2022-10-05T16:42:43.644Z,100937.13
2022-10-05T16:45:45.031Z,101010.72
2022-10-05T16:48:30.814Z,101007.38
2022-10-05T16:51:03.991Z,100918.81
2022-10-05T16:53:54.445Z,101004.66
2022-10-05T16:56:40.973Z,100989.91
2022-10-05T16:59:14.046Z,101000.72
2022-10-05T17:02:16.242Z,100914.63
2022-10-05T17:04:59.187Z,100975.34
2022-10-05T17:07:58.847Z,100993.22
2022-10-05T17:11:04.294Z,100992.81
2022-10-05T17:13:49.126Z,100983.66
2022-10-05T17:16:40.203Z,100989.91
2022-10-05T17:19:28.557Z,100980.34
2022-10-05T17:22:13.433Z,100890.72
2022-10-05T17:25:09.607Z,100972.22
2022-10-05T17:27:57.669Z,100974.13
2022-10-05T17:30:49.671Z,100974.53
2022-10-05T17:33:30.035Z,100961.63
2022-10-05T17:36:09.403Z,100964.53
2022-10-05T17:38:48.787Z,100956.63
2022-10-05T17:41:24.688Z,100955.81
2022-10-05T17:44:22.412Z,100961.22
2022-10-05T17:47:04.970Z,100969.53
2022-10-05T17:50:16.284Z,100962.25
2022-10-05T17:53:24.617Z,100965.78
2022-10-05T17:56:06.481Z,100877.00
2022-10-05T17:58:36.784Z,100924.56
2022-10-05T18:01:18.164Z,100959.97
2022-10-05T18:03:53.100Z,100969.94
2022-10-05T18:06:31.968Z,100966.84
2022-10-05T18:09:23.443Z,100930.44
2022-10-05T18:12:17.398Z,100876.59
2022-10-05T18:15:05.303Z,100957.47
2022-10-05T18:17:51.657Z,100954.13
2022-10-05T18:20:28.100Z,100954.13
2022-10-05T18:23:10.852Z,100955.78
2022-10-05T18:25:53.130Z,100934.19
2022-10-05T18:28:41.764Z,100946.59
2022-10-05T18:31:16.556Z,100956.66
2022-10-05T18:34:03.572Z,100952.28
2022-10-05T18:37:00.903Z,100935.44
2022-10-05T18:39:40.307Z,100942.09
2022-10-05T18:42:17.721Z,100770.63
2022-10-05T18:44:53.976Z,100848.75
2022-10-05T18:47:32.474Z,100918.00
2022-10-05T18:50:30.756Z,100910.06
2022-10-05T18:53:20.025Z,100932.72
2022-10-05T18:56:05.871Z,100925.03
2022-10-05T18:59:02.904Z,100827.38
2022-10-05T19:02:02.242Z,100913.81
2022-10-05T19:04:41.939Z,100916.50
2022-10-05T19:07:50.294Z,100901.34
2022-10-05T19:10:24.135Z,100910.50
2022-10-05T19:13:06.131Z,100902.63
2022-10-05T19:16:09.510Z,100911.53
2022-10-05T19:19:01.065Z,100906.72
2022-10-05T19:21:48.447Z,100903.41
2022-10-05T19:24:59.734Z,100903.41
2022-10-05T19:27:59.964Z,100903.41
2022-10-05T19:31:13.732Z,100911.50
2022-10-05T19:34:01.363Z,100892.81
2022-10-05T19:36:41.537Z,100910.91
2022-10-05T19:39:22.223Z,100916.28
2022-10-05T19:42:20.324Z,100907.56
2022-10-05T19:45:18.767Z,100899.03
2022-10-05T19:48:05.676Z,100800.75
2022-10-05T19:50:41.431Z,100895.94
2022-10-05T19:53:25.206Z,100899.69
2022-10-05T19:55:57.029Z,100890.53
2022-10-05T19:58:30.394Z,100889.72
2022-10-05T20:01:03.347Z,100888.66
2022-10-05T20:03:36.420Z,100725.16
2022-10-05T20:06:11.916Z,100882.44
2022-10-05T20:08:47.777Z,100869.31
2022-10-05T20:11:23.742Z,100811.78
2022-10-05T20:13:54.257Z,100874.34
2022-10-05T20:16:46.101Z,100869.13
2022-10-05T20:19:55.379Z,100876.38
2022-10-05T20:22:31.654Z,100864.56
2022-10-05T20:25:07.832Z,100863.94
2022-10-05T20:27:46.316Z,100866.84
2022-10-05T20:30:32.477Z,100852.31
2022-10-05T20:33:05.548Z,100850.44
2022-10-05T20:35:35.968Z,100853.56
2022-10-05T20:38:06.436Z,100837.56
2022-10-05T20:40:37.409Z,100835.91
2022-10-05T20:43:09.161Z,100804.13
2022-10-05T20:45:44.215Z,100833.63
2022-10-05T20:48:17.579Z,100835.28
2022-10-05T20:50:48.722Z,100834.66
2022-10-05T20:53:19.390Z,100818.66
2022-10-05T20:55:50.076Z,100837.75
2022-10-05T20:58:20.785Z,100829.66
2022-10-05T21:01:09.454Z,100822.41
2022-10-05T21:03:40.220Z,100824.06
2022-10-05T21:06:12.238Z,100828.22
2022-10-05T21:08:42.658Z,100826.56
2022-10-05T21:11:16.259Z,100822.81
2022-10-05T21:13:47.105Z,100798.50
2022-10-05T21:16:25.918Z,100805.78
2022-10-05T21:18:56.546Z,100822.41
2022-10-05T21:21:28.346Z,100730.78
2022-10-05T21:24:01.714Z,100826.34
2022-10-05T21:26:33.002Z,100823.88
2022-10-05T21:29:03.545Z,100828.63
2022-10-05T21:31:34.255Z,100810.31
2022-10-05T21:34:05.310Z,100836.09
2022-10-05T21:36:36.397Z,100851.88
2022-10-05T21:39:06.918Z,100856.63
2022-10-05T21:41:37.625Z,100861.84
2022-10-05T21:44:08.473Z,100862.88
2022-10-05T21:46:40.380Z,100863.50
2022-10-05T21:49:10.981Z,100847.09
2022-10-05T21:51:41.816Z,100863.50
2022-10-05T21:54:15.734Z,100876.81
2022-10-05T21:56:51.344Z,100739.22
2022-10-05T21:59:26.045Z,100795.50
2022-10-05T22:01:56.517Z,100878.88
2022-10-05T22:04:27.013Z,100891.53
2022-10-05T22:06:57.642Z,100846.16
2022-10-05T22:09:28.273Z,100890.91
2022-10-05T22:11:58.750Z,100899.00
2022-10-05T22:14:29.298Z,100902.94
2022-10-05T22:16:59.944Z,100905.63
2022-10-05T22:19:30.399Z,100913.31
2022-10-05T22:22:00.823Z,100924.28
2022-10-05T22:24:31.217Z,100915.78
2022-10-05T22:27:01.694Z,100919.88
2022-10-05T22:29:32.237Z,100915.28
2022-10-05T22:32:02.643Z,100922.97
2022-10-05T22:34:33.101Z,100908.84
2022-10-05T22:37:06.150Z,100914.00
2022-10-05T22:39:36.655Z,100926.66
2022-10-05T22:42:07.821Z,100943.09
2022-10-05T22:44:38.779Z,100941.59
2022-10-05T22:47:09.280Z,100962.38
2022-10-05T22:49:40.171Z,100947.00
2022-10-05T22:52:10.942Z,100954.69
2022-10-05T22:54:41.590Z,100959.25
2022-10-05T22:57:12.644Z,100948.41
2022-10-05T22:59:43.150Z,100940.06
2022-10-05T23:02:14.982Z,100954.97
2022-10-05T23:04:45.692Z,100959.34
2022-10-05T23:07:16.148Z,100962.13
2022-10-05T23:09:46.583Z,100964.84
2022-10-05T23:12:17.354Z,100971.72
2022-10-05T23:14:48.696Z,100948.00
2022-10-05T23:17:22.272Z,100980.53
2022-10-05T23:19:52.791Z,100977.03
2022-10-05T23:22:24.677Z,100979.38
2022-10-05T23:24:55.388Z,100982.72
2022-10-05T23:27:25.743Z,100985.59
2022-10-05T23:29:56.146Z,100988.53
2022-10-05T23:32:26.617Z,100987.75
2022-10-05T23:34:57.490Z,100989.41
2022-10-05T23:37:29.342Z,100994.19
2022-10-05T23:39:59.879Z,100993.97
2022-10-05T23:42:30.327Z,100993.41
2022-10-05T23:45:00.774Z,100998.59
2022-10-05T23:47:31.770Z,100975.75
2022-10-05T23:50:03.546Z,101005.25
2022-10-05T23:52:36.365Z,100931.03
2022-10-05T23:55:07.683Z,100991.16
2022-10-05T23:57:39.395Z,101003.59
